createdAt,value
2022-10-23T00:01:59.394Z,82.03
2022-10-23T00:04:26.319Z,82.08
2022-10-23T00:06:53.122Z,81.60
2022-10-23T00:09:21.352Z,81.57
2022-10-23T00:11:50.029Z,81.60
2022-10-23T00:14:18.448Z,81.35
2022-10-23T00:16:48.161Z,81.25
2022-10-23T00:19:17.415Z,81.58
2022-10-23T00:21:44.940Z,81.74
2022-10-23T00:24:12.556Z,82.38
2022-10-23T00:26:40.624Z,83.21
2022-10-23T00:29:08.781Z,82.64
2022-10-23T00:31:36.391Z,82.90
2022-10-23T00:34:06.951Z,82.42
2022-10-23T00:36:33.878Z,82.14
2022-10-23T00:39:00.225Z,81.84
2022-10-23T00:41:28.925Z,81.83
2022-10-23T00:43:57.206Z,82.34
2022-10-23T00:46:25.041Z,82.34
2022-10-23T00:48:52.117Z,82.17
2022-10-23T00:51:18.970Z,81.91
2022-10-23T00:53:52.847Z,81.79
2022-10-23T00:56:25.451Z,81.28
2022-10-23T00:58:52.272Z,81.91
2022-10-23T01:01:19.982Z,82.52
2022-10-23T01:03:47.259Z,83.03
2022-10-23T01:06:31.790Z,84.20
2022-10-23T01:09:12.814Z,84.24
2022-10-23T01:11:48.268Z,85.18
2022-10-23T01:14:27.290Z,84.66
2022-10-23T01:17:06.741Z,83.80
2022-10-23T01:19:55.893Z,83.87
2022-10-23T01:22:32.970Z,83.84
2022-10-23T01:25:03.009Z,83.34
2022-10-23T01:27:42.331Z,83.47
2022-10-23T01:30:10.540Z,83.13
2022-10-23T01:32:55.690Z,82.67
2022-10-23T01:35:24.998Z,83.27
2022-10-23T01:37:53.609Z,82.76
2022-10-23T01:40:24.879Z,82.34
2022-10-23T01:42:54.787Z,82.31
2022-10-23T01:45:26.849Z,82.60
2022-10-23T01:47:54.421Z,82.09
2022-10-23T01:50:22.448Z,82.53
2022-10-23T01:52:48.770Z,82.97
2022-10-23T01:55:15.174Z,83.02
2022-10-23T01:57:41.947Z,82.82
2022-10-23T02:00:10.071Z,83.01
2022-10-23T02:02:37.714Z,82.75
2022-10-23T02:05:10.640Z,82.38
2022-10-23T02:07:37.028Z,82.43
2022-10-23T02:10:04.108Z,83.10
2022-10-23T02:12:49.081Z,82.90
2022-10-23T02:15:15.359Z,82.75
2022-10-23T02:17:57.328Z,83.41
2022-10-23T02:20:36.598Z,83.47
2022-10-23T02:23:08.657Z,83.45
2022-10-23T02:25:39.472Z,84.22
2022-10-23T02:28:09.338Z,84.47
2022-10-23T02:30:37.709Z,84.60
2022-10-23T02:33:05.252Z,84.25
2022-10-23T02:35:31.594Z,83.89
2022-10-23T02:38:00.009Z,84.26
2022-10-23T02:40:30.493Z,84.39
2022-10-23T02:43:00.844Z,84.08
2022-10-23T02:45:35.888Z,84.11
2022-10-23T02:48:08.448Z,83.60
2022-10-23T02:50:43.578Z,83.63
2022-10-23T02:53:45.321Z,83.20
2022-10-23T02:56:21.498Z,83.63
2022-10-23T02:58:54.698Z,84.03
2022-10-23T03:01:23.521Z,83.96
2022-10-23T03:04:00.911Z,83.60
2022-10-23T03:06:27.229Z,83.32
2022-10-23T03:08:53.507Z,83.19
2022-10-23T03:11:19.989Z,82.69
2022-10-23T03:13:46.454Z,82.96
2022-10-23T03:16:12.748Z,82.45
2022-10-23T03:18:39.066Z,82.52
2022-10-23T03:21:05.381Z,82.47
2022-10-23T03:23:31.681Z,82.61
2022-10-23T03:25:57.979Z,82.56
2022-10-23T03:28:24.302Z,83.22
2022-10-23T03:30:50.832Z,83.81
2022-10-23T03:33:17.158Z,83.50
2022-10-23T03:35:43.458Z,83.14
2022-10-23T03:38:09.764Z,83.37
2022-10-23T03:40:36.121Z,83.51
2022-10-23T03:43:02.465Z,84.12
2022-10-23T03:45:28.771Z,84.15
2022-10-23T03:47:55.085Z,83.70
2022-10-23T03:50:21.451Z,85.22
2022-10-23T03:52:47.752Z,85.03
2022-10-23T03:55:14.096Z,85.07
2022-10-23T03:57:40.434Z,85.25
2022-10-23T04:00:07.088Z,85.09
2022-10-23T04:02:33.429Z,84.14
2022-10-23T04:04:59.748Z,83.88
2022-10-23T04:07:26.029Z,84.40
2022-10-23T04:09:52.333Z,83.78
2022-10-23T04:12:18.701Z,83.86
2022-10-23T04:14:45.002Z,83.92
2022-10-23T04:17:11.301Z,83.93
2022-10-23T04:19:37.657Z,83.88
2022-10-23T04:22:03.940Z,84.29
2022-10-23T04:24:30.227Z,84.94
2022-10-23T04:26:56.496Z,84.21
2022-10-23T04:29:24.461Z,83.72
2022-10-23T04:31:51.584Z,83.93
2022-10-23T04:34:18.459Z,83.97
2022-10-23T04:36:44.741Z,84.46
2022-10-23T04:39:11.115Z,84.31
2022-10-23T04:41:38.877Z,84.24
2022-10-23T04:44:05.186Z,84.13
2022-10-23T04:46:31.484Z,83.79
2022-10-23T04:48:57.781Z,84.53
2022-10-23T04:51:24.067Z,84.34
2022-10-23T04:53:50.474Z,84.24
2022-10-23T04:56:16.777Z,84.62
2022-10-23T04:58:43.145Z,84.54
2022-10-23T05:01:12.480Z,84.08
2022-10-23T05:03:38.937Z,83.98
2022-10-23T05:06:05.637Z,84.01
2022-10-23T05:08:32.147Z,83.59
2022-10-23T05:10:58.703Z,84.16
2022-10-23T05:13:25.070Z,83.76
2022-10-23T05:15:51.937Z,84.08
2022-10-23T05:18:21.518Z,84.44
2022-10-23T05:20:50.208Z,84.27
2022-10-23T05:23:18.173Z,84.58
2022-10-23T05:25:44.743Z,85.80
2022-10-23T05:28:11.310Z,85.53
2022-10-23T05:30:38.195Z,86.52
2022-10-23T05:33:04.967Z,85.29
2022-10-23T05:35:31.528Z,85.64
2022-10-23T05:37:59.146Z,85.60
2022-10-23T05:40:25.781Z,86.21
2022-10-23T05:42:52.219Z,86.73
2022-10-23T05:45:18.665Z,86.61
2022-10-23T05:47:45.296Z,85.67
2022-10-23T05:50:12.074Z,85.21
2022-10-23T05:52:38.366Z,86.35
2022-10-23T05:55:04.803Z,86.69
2022-10-23T05:57:34.254Z,86.58
2022-10-23T06:00:00.548Z,86.01
2022-10-23T06:02:27.203Z,85.44
2022-10-23T06:04:53.608Z,86.89
2022-10-23T06:07:23.398Z,87.08
2022-10-23T06:09:50.160Z,87.59
2022-10-23T06:12:16.576Z,87.71
2022-10-23T06:14:42.879Z,87.36
2022-10-23T06:17:09.219Z,86.91
2022-10-23T06:19:35.514Z,87.56
2022-10-23T06:22:02.190Z,87.59
2022-10-23T06:24:28.486Z,88.48
2022-10-23T06:26:54.771Z,88.39
2022-10-23T06:29:21.075Z,88.51
2022-10-23T06:31:47.430Z,87.80
2022-10-23T06:34:13.872Z,87.29
2022-10-23T06:36:40.253Z,87.49
2022-10-23T06:39:06.857Z,87.71
2022-10-23T06:41:33.221Z,87.81
2022-10-23T06:43:59.641Z,87.75
2022-10-23T06:46:32.715Z,87.29
2022-10-23T06:48:59.006Z,85.92
2022-10-23T06:51:29.609Z,86.63
2022-10-23T06:53:56.365Z,86.83
2022-10-23T06:56:22.962Z,87.36
2022-10-23T06:58:49.347Z,87.46
2022-10-23T07:01:16.510Z,87.79
2022-10-23T07:03:43.007Z,87.77
2022-10-23T07:06:10.637Z,87.54
2022-10-23T07:08:37.492Z,87.51
2022-10-23T07:11:08.110Z,87.30
2022-10-23T07:13:37.823Z,87.17
2022-10-23T07:16:11.426Z,87.80
2022-10-23T07:18:37.969Z,87.70
2022-10-23T07:21:04.496Z,87.99
2022-10-23T07:23:30.813Z,88.11
2022-10-23T07:26:02.516Z,87.81
2022-10-23T07:28:28.868Z,87.99
2022-10-23T07:30:58.595Z,87.41
2022-10-23T07:33:25.129Z,87.75
2022-10-23T07:35:51.491Z,87.68
2022-10-23T07:38:17.997Z,87.17
2022-10-23T07:40:44.601Z,86.96
2022-10-23T07:43:10.949Z,87.05
2022-10-23T07:45:37.334Z,86.72
2022-10-23T07:48:03.735Z,86.98
2022-10-23T07:50:30.016Z,86.33
2022-10-23T07:52:58.494Z,85.99
2022-10-23T07:55:24.858Z,86.18
2022-10-23T07:57:51.164Z,85.27
2022-10-23T08:00:17.837Z,85.98
2022-10-23T08:02:44.456Z,86.15
2022-10-23T08:05:11.162Z,86.31
2022-10-23T08:07:45.064Z,86.21
2022-10-23T08:10:11.369Z,86.11
2022-10-23T08:12:37.862Z,85.69
2022-10-23T08:15:04.525Z,85.36
2022-10-23T08:17:30.813Z,86.09
2022-10-23T08:19:57.204Z,85.73
2022-10-23T08:22:23.668Z,86.02
2022-10-23T08:24:49.993Z,86.00
2022-10-23T08:27:16.333Z,85.44
2022-10-23T08:29:42.705Z,85.45
2022-10-23T08:32:09.056Z,85.67
2022-10-23T08:34:37.773Z,85.13
2022-10-23T08:37:04.085Z,85.03
2022-10-23T08:39:30.376Z,85.32
2022-10-23T08:41:56.732Z,85.48
2022-10-23T08:44:26.016Z,85.13
2022-10-23T08:46:59.167Z,84.70
2022-10-23T08:49:28.410Z,84.68
2022-10-23T08:51:56.378Z,84.80
2022-10-23T08:54:36.557Z,85.38
2022-10-23T08:57:14.451Z,85.24
2022-10-23T08:59:46.165Z,84.92
2022-10-23T09:02:26.629Z,85.04
2022-10-23T09:04:54.317Z,85.18
2022-10-23T09:07:36.174Z,84.70
2022-10-23T09:10:14.869Z,84.52
2022-10-23T09:12:41.794Z,84.56
2022-10-23T09:15:23.420Z,84.57
2022-10-23T09:17:55.168Z,84.52
2022-10-23T09:20:21.655Z,84.27
2022-10-23T09:22:49.153Z,83.98
2022-10-23T09:25:26.137Z,83.97
2022-10-23T09:27:56.102Z,83.98
2022-10-23T09:30:29.553Z,83.79
2022-10-23T09:32:55.874Z,83.85
2022-10-23T09:35:23.273Z,83.70
2022-10-23T09:37:53.056Z,83.89
2022-10-23T09:40:19.376Z,83.49
2022-10-23T09:42:53.363Z,83.36
2022-10-23T09:45:24.748Z,83.31
2022-10-23T09:47:51.080Z,82.85
2022-10-23T09:50:20.070Z,82.85
2022-10-23T09:52:51.082Z,82.88
2022-10-23T09:55:23.106Z,82.40
2022-10-23T09:57:49.475Z,81.74
2022-10-23T10:00:23.009Z,81.72
2022-10-23T10:02:58.596Z,81.70
2022-10-23T10:05:32.998Z,81.80
2022-10-23T10:07:59.319Z,81.53
2022-10-23T10:10:28.754Z,81.38
2022-10-23T10:12:59.327Z,81.61
2022-10-23T10:15:30.808Z,81.56
2022-10-23T10:17:57.137Z,81.68
2022-10-23T10:20:41.818Z,81.95
2022-10-23T10:23:23.233Z,82.07
2022-10-23T10:26:08.580Z,82.23
2022-10-23T10:28:37.908Z,82.21
2022-10-23T10:31:24.512Z,82.21
2022-10-23T10:34:02.721Z,82.21
2022-10-23T10:36:28.992Z,82.20
2022-10-23T10:39:00.306Z,82.30
2022-10-23T10:41:41.601Z,82.36
2022-10-23T10:44:16.826Z,82.78
2022-10-23T10:46:55.335Z,82.95
2022-10-23T10:49:38.849Z,82.76
2022-10-23T10:52:11.440Z,82.62
2022-10-23T10:54:37.745Z,82.44
2022-10-23T10:57:09.769Z,82.32
2022-10-23T10:59:42.400Z,82.55
2022-10-23T11:02:11.638Z,82.67
2022-10-23T11:04:44.657Z,82.20
2022-10-23T11:07:15.804Z,81.81
2022-10-23T11:09:43.129Z,82.02
2022-10-23T11:12:16.318Z,81.86
2022-10-23T11:14:42.722Z,81.23
2022-10-23T11:17:13.584Z,81.00
2022-10-23T11:19:45.674Z,80.78
2022-10-23T11:22:19.248Z,81.09
2022-10-23T11:24:58.356Z,82.07
2022-10-23T11:27:34.516Z,81.72
2022-10-23T11:30:10.167Z,81.86
2022-10-23T11:32:36.441Z,81.63
2022-10-23T11:35:21.732Z,81.56
2022-10-23T11:38:14.637Z,81.68
2022-10-23T11:40:45.737Z,82.15
2022-10-23T11:43:12.111Z,82.05
2022-10-23T11:45:40.046Z,82.07
2022-10-23T11:48:23.376Z,81.98
2022-10-23T11:50:51.541Z,81.65
2022-10-23T11:53:23.967Z,81.89
2022-10-23T11:56:09.112Z,81.77
2022-10-23T11:58:55.863Z,81.67
2022-10-23T12:01:41.815Z,81.54
2022-10-23T12:04:13.978Z,81.45
2022-10-23T12:06:41.581Z,81.37
2022-10-23T12:09:21.861Z,81.24
2022-10-23T12:11:49.143Z,81.14
2022-10-23T12:14:35.533Z,80.98
2022-10-23T12:17:01.981Z,80.77
2022-10-23T12:19:29.788Z,80.64
2022-10-23T12:22:01.147Z,80.17
2022-10-23T12:24:39.768Z,79.85
2022-10-23T12:27:29.457Z,79.36
2022-10-23T12:30:14.286Z,78.59
2022-10-23T12:32:54.108Z,78.09
2022-10-23T12:35:20.379Z,77.25
2022-10-23T12:37:51.383Z,77.92
2022-10-23T12:40:17.777Z,78.37
2022-10-23T12:42:52.766Z,77.24
2022-10-23T12:45:22.459Z,77.28
2022-10-23T12:47:49.799Z,76.50
2022-10-23T12:50:21.049Z,76.27
2022-10-23T12:52:50.976Z,76.63
2022-10-23T12:55:17.469Z,76.96
2022-10-23T12:57:44.633Z,77.71
2022-10-23T13:00:15.101Z,76.15
2022-10-23T13:02:41.574Z,75.85
2022-10-23T13:05:09.092Z,76.35
2022-10-23T13:07:42.681Z,75.54
2022-10-23T13:10:13.644Z,75.47
2022-10-23T13:12:40.983Z,74.87
2022-10-23T13:15:07.689Z,75.98
2022-10-23T13:17:34.077Z,74.89
2022-10-23T13:20:10.516Z,74.44
2022-10-23T13:22:37.012Z,74.95
2022-10-23T13:25:04.313Z,74.61
2022-10-23T13:27:30.593Z,75.15
2022-10-23T13:29:56.917Z,74.55
2022-10-23T13:32:24.396Z,75.15
2022-10-23T13:35:03.604Z,74.75
2022-10-23T13:37:36.820Z,74.74
2022-10-23T13:40:09.652Z,74.07
2022-10-23T13:42:36.063Z,74.88
2022-10-23T13:45:02.404Z,74.39
2022-10-23T13:47:28.724Z,74.04
2022-10-23T13:49:55.005Z,74.32
2022-10-23T13:52:23.341Z,74.54
2022-10-23T13:54:49.935Z,74.06
2022-10-23T13:57:16.681Z,74.42
2022-10-23T13:59:43.022Z,74.62
2022-10-23T14:02:19.262Z,73.71
2022-10-23T14:04:47.108Z,74.30
2022-10-23T14:07:13.475Z,74.40
2022-10-23T14:09:39.757Z,73.80
2022-10-23T14:12:06.115Z,73.51
2022-10-23T14:14:32.492Z,73.29
2022-10-23T14:16:58.912Z,73.31
2022-10-23T14:19:25.224Z,73.26
2022-10-23T14:21:51.560Z,73.64
2022-10-23T14:24:17.921Z,72.88
2022-10-23T14:26:44.260Z,73.38
2022-10-23T14:29:17.785Z,73.19
2022-10-23T14:31:47.792Z,73.47
2022-10-23T14:34:14.072Z,73.06
2022-10-23T14:36:49.798Z,72.73
2022-10-23T14:39:17.317Z,72.70
2022-10-23T14:41:43.675Z,72.60
2022-10-23T14:44:10.001Z,72.48
2022-10-23T14:46:38.117Z,72.52
2022-10-23T14:49:04.417Z,72.41
2022-10-23T14:51:30.777Z,72.46
2022-10-23T14:54:01.772Z,72.59
2022-10-23T14:56:32.629Z,73.10
2022-10-23T14:59:02.661Z,72.25
2022-10-23T15:01:32.963Z,72.39
2022-10-23T15:03:59.607Z,72.96
2022-10-23T15:06:25.958Z,72.82
2022-10-23T15:08:54.632Z,72.58
2022-10-23T15:11:21.672Z,72.97
2022-10-23T15:13:47.956Z,73.24
2022-10-23T15:16:14.275Z,73.42
2022-10-23T15:18:40.635Z,73.00
2022-10-23T15:21:07.325Z,73.20
2022-10-23T15:23:37.682Z,73.32
2022-10-23T15:26:05.813Z,73.63
2022-10-23T15:28:32.664Z,73.94
2022-10-23T15:30:59.172Z,74.08
2022-10-23T15:33:26.032Z,73.74
2022-10-23T15:35:52.779Z,74.34
2022-10-23T15:38:19.068Z,74.50
2022-10-23T15:40:45.730Z,74.52
2022-10-23T15:43:13.254Z,74.32
2022-10-23T15:45:39.853Z,74.76
2022-10-23T15:48:06.619Z,75.14
2022-10-23T15:50:33.359Z,75.10
2022-10-23T15:52:59.728Z,75.37
2022-10-23T15:55:26.028Z,75.17
2022-10-23T15:57:52.404Z,75.37
2022-10-23T16:00:20.608Z,75.22
2022-10-23T16:02:47.489Z,75.45
2022-10-23T16:05:14.107Z,75.74
2022-10-23T16:07:40.446Z,76.30
2022-10-23T16:10:06.913Z,75.79
2022-10-23T16:12:33.189Z,76.57
2022-10-23T16:14:59.559Z,76.79
2022-10-23T16:17:25.849Z,76.67
2022-10-23T16:19:52.135Z,76.45
2022-10-23T16:22:18.500Z,76.48
2022-10-23T16:24:44.778Z,76.87
2022-10-23T16:27:11.141Z,76.55
2022-10-23T16:29:37.424Z,76.51
2022-10-23T16:32:03.765Z,76.76
2022-10-23T16:34:30.050Z,76.21
2022-10-23T16:36:56.341Z,76.46
2022-10-23T16:39:22.644Z,76.46
2022-10-23T16:41:48.957Z,75.95
2022-10-23T16:44:15.349Z,76.12
2022-10-23T16:46:41.725Z,75.94
2022-10-23T16:49:08.773Z,75.71
2022-10-23T16:51:35.245Z,75.54
2022-10-23T16:54:01.752Z,75.85
2022-10-23T16:56:28.806Z,75.48
2022-10-23T16:58:55.851Z,75.31
2022-10-23T17:01:24.045Z,75.34
2022-10-23T17:03:51.450Z,75.09
2022-10-23T17:06:19.669Z,75.23
2022-10-23T17:08:46.102Z,74.78
2022-10-23T17:11:23.241Z,74.99
2022-10-23T17:13:58.540Z,75.16
2022-10-23T17:16:27.720Z,74.90
2022-10-23T17:18:54.493Z,74.62
2022-10-23T17:21:21.601Z,74.38
2022-10-23T17:23:48.665Z,74.58
2022-10-23T17:26:16.436Z,74.61
2022-10-23T17:28:43.477Z,74.44
2022-10-23T17:31:17.018Z,74.86
2022-10-23T17:33:44.466Z,74.70
2022-10-23T17:36:11.828Z,74.88
2022-10-23T17:38:39.195Z,74.42
2022-10-23T17:41:06.210Z,74.48
2022-10-23T17:43:33.668Z,74.42
2022-10-23T17:46:00.076Z,74.32
2022-10-23T17:48:26.969Z,74.47
2022-10-23T17:51:05.526Z,74.59
2022-10-23T17:53:32.999Z,74.66
2022-10-23T17:56:01.059Z,74.45
2022-10-23T17:58:27.372Z,74.40
2022-10-23T18:00:53.772Z,74.38
2022-10-23T18:03:20.137Z,74.72
2022-10-23T18:05:46.711Z,74.40
2022-10-23T18:08:13.134Z,74.72
2022-10-23T18:10:39.562Z,74.51
2022-10-23T18:13:05.906Z,74.76
2022-10-23T18:15:35.767Z,75.23
2022-10-23T18:18:09.109Z,74.99
2022-10-23T18:20:40.117Z,75.05
2022-10-23T18:23:07.055Z,75.18
2022-10-23T18:25:34.128Z,75.13
2022-10-23T18:28:02.538Z,75.14
2022-10-23T18:30:29.478Z,75.06
2022-10-23T18:32:58.054Z,75.27
2022-10-23T18:35:24.744Z,75.27
2022-10-23T18:37:51.497Z,75.70
2022-10-23T18:40:18.113Z,75.84
2022-10-23T18:42:44.727Z,75.58
2022-10-23T18:45:12.596Z,75.72
2022-10-23T18:47:39.161Z,75.92
2022-10-23T18:50:05.648Z,75.92
2022-10-23T18:52:31.953Z,75.72
2022-10-23T18:54:58.248Z,75.53
2022-10-23T18:57:24.822Z,75.79
2022-10-23T18:59:51.233Z,75.53
2022-10-23T19:02:18.348Z,75.71
2022-10-23T19:04:44.776Z,75.44
2022-10-23T19:07:11.079Z,75.70
2022-10-23T19:09:37.477Z,75.79
2022-10-23T19:12:05.770Z,75.52
2022-10-23T19:14:32.136Z,75.32
2022-10-23T19:17:02.766Z,75.41
2022-10-23T19:19:31.927Z,75.66
2022-10-23T19:21:58.659Z,75.53
2022-10-23T19:24:29.421Z,75.49
2022-10-23T19:26:56.739Z,75.64
2022-10-23T19:29:26.331Z,75.33
2022-10-23T19:31:53.005Z,75.49
2022-10-23T19:34:20.551Z,75.22
2022-10-23T19:36:47.481Z,75.07
2022-10-23T19:39:14.152Z,75.04
2022-10-23T19:41:40.883Z,75.14
2022-10-23T19:44:07.194Z,75.17
2022-10-23T19:46:36.881Z,75.36
2022-10-23T19:49:04.444Z,75.48
2022-10-23T19:51:30.997Z,75.43
2022-10-23T19:53:58.026Z,75.74
2022-10-23T19:56:24.358Z,75.78
2022-10-23T19:58:51.062Z,75.77
2022-10-23T20:01:18.998Z,76.69
2022-10-23T20:03:48.621Z,78.06
2022-10-23T20:06:21.742Z,79.37
2022-10-23T20:08:49.897Z,79.40
2022-10-23T20:11:20.536Z,80.40
2022-10-23T20:13:48.647Z,80.92
2022-10-23T20:16:22.151Z,81.04
2022-10-23T20:18:48.909Z,81.08
2022-10-23T20:21:15.551Z,81.90
2022-10-23T20:23:45.284Z,82.40
2022-10-23T20:26:13.568Z,81.86
2022-10-23T20:28:39.896Z,82.18
2022-10-23T20:31:08.386Z,82.24
2022-10-23T20:33:39.030Z,82.99
2022-10-23T20:36:07.211Z,82.83
2022-10-23T20:38:34.250Z,82.87
2022-10-23T20:41:05.594Z,83.88
2022-10-23T20:43:33.635Z,82.85
2022-10-23T20:46:04.792Z,82.46
2022-10-23T20:48:35.189Z,82.41
2022-10-23T20:51:02.441Z,82.28
2022-10-23T20:53:29.162Z,82.26
2022-10-23T20:55:55.477Z,82.13
2022-10-23T20:58:21.823Z,81.84
2022-10-23T21:00:48.141Z,81.67
2022-10-23T21:03:14.538Z,81.27
2022-10-23T21:05:40.844Z,81.17
2022-10-23T21:08:08.113Z,81.05
2022-10-23T21:10:34.534Z,81.04
2022-10-23T21:13:02.386Z,81.17
2022-10-23T21:15:28.665Z,80.95
2022-10-23T21:17:56.857Z,80.97
2022-10-23T21:20:25.591Z,81.01
2022-10-23T21:22:54.128Z,80.63
2022-10-23T21:25:21.595Z,80.55
2022-10-23T21:27:48.009Z,80.66
2022-10-23T21:30:14.557Z,80.81
2022-10-23T21:32:40.951Z,80.81
2022-10-23T21:35:07.684Z,80.95
2022-10-23T21:37:34.007Z,80.63
2022-10-23T21:40:00.353Z,80.38
2022-10-23T21:42:27.165Z,80.19
2022-10-23T21:44:53.886Z,80.14
2022-10-23T21:47:20.178Z,80.10
2022-10-23T21:49:46.549Z,79.88
2022-10-23T21:52:15.023Z,79.84
2022-10-23T21:54:43.899Z,79.50
2022-10-23T21:57:14.604Z,79.15
2022-10-23T21:59:40.912Z,78.57
2022-10-23T22:02:07.303Z,78.31
2022-10-23T22:04:33.912Z,77.79
2022-10-23T22:07:00.215Z,77.22
2022-10-23T22:09:26.567Z,76.82
2022-10-23T22:11:53.273Z,76.76
2022-10-23T22:14:20.210Z,76.43
2022-10-23T22:16:47.217Z,76.32
2022-10-23T22:19:16.466Z,76.24
2022-10-23T22:21:43.045Z,76.30
2022-10-23T22:24:09.702Z,76.18
2022-10-23T22:26:37.610Z,76.13
2022-10-23T22:29:08.085Z,76.27
2022-10-23T22:31:35.021Z,75.84
2022-10-23T22:34:13.094Z,76.01
2022-10-23T22:36:48.606Z,75.89
2022-10-23T22:39:15.018Z,76.14
2022-10-23T22:41:43.170Z,76.07
2022-10-23T22:44:11.080Z,75.75
2022-10-23T22:46:39.522Z,75.68
2022-10-23T22:51:38.582Z,75.53
2022-10-23T22:54:05.072Z,75.59
2022-10-23T22:56:31.391Z,75.47
2022-10-23T22:58:58.028Z,75.22
2022-10-23T23:01:26.191Z,75.67
2022-10-23T23:03:52.655Z,75.84
2022-10-23T23:06:19.546Z,76.13
2022-10-23T23:08:46.582Z,76.51
2022-10-23T23:11:14.708Z,76.77
2022-10-23T23:13:42.506Z,77.21
2022-10-23T23:16:16.648Z,77.84
2022-10-23T23:18:43.000Z,78.01
2022-10-23T23:21:09.466Z,78.69
2022-10-23T23:23:36.649Z,78.49
2022-10-23T23:26:05.504Z,78.64
2022-10-23T23:28:32.382Z,78.82
2022-10-23T23:31:03.204Z,78.75
2022-10-23T23:33:30.702Z,79.00
2022-10-23T23:35:58.699Z,79.37
2022-10-23T23:38:26.293Z,79.13
2022-10-23T23:40:54.183Z,78.97
2022-10-23T23:43:20.941Z,78.98
2022-10-23T23:45:48.358Z,78.96
2022-10-23T23:48:17.097Z,78.58
2022-10-23T23:50:44.292Z,78.54
2022-10-23T23:53:11.650Z,78.49
2022-10-23T23:55:39.300Z,78.32
2022-10-23T23:58:06.223Z,78.46
